Flight Track Log - Related Links

Times and Time Zones

All times are in EDT time to prevent confusion due to time zone crossing. See the C-GONN flight status page for this flight to view local times or setup timezone preferences in your user account.

Time Position Orientation Groundspeed Altitude Reporting Facility
EDT Latitude Longitude Course Direction KTS MPH feet Rate Location/Type
Mon 11:42:47 AM 46.6500 -80.7667 184° South 120 138 2,500  Level Toronto Center
Mon 11:43:47 AM 46.6667 -80.7167 64° Northeast 120 138 3,500 900 Climbing Toronto Center
Mon 11:44:47 AM 46.6500 -80.7000 146° Southeast 120 138 4,300 800 Climbing Toronto Center
Mon 11:45:47 AM 46.6000 -80.7000 180° South 160 184 5,100 750 Climbing Toronto Center
Mon 11:46:00 AM 46.2959 -80.6620 167° South  Level Estimated
Mon 11:46:47 AM 46.5500 -80.6667 155° Southeast 170 196 5,800  Level Toronto Center
Mon 11:47:00 AM 46.2300 -80.6349 172° South  Level Estimated
Mon 11:47:47 AM 46.5167 -80.6667 180° South 180 207 6,600  Level Toronto Center
Mon 11:48:00 AM 46.1618 -80.6419 184° South  Level FlightAware Approximate
Mon 11:48:47 AM 46.4500 -80.6500 170° South 190 219 7,200  Level Toronto Center
Mon 11:49:47 AM 46.4000 -80.6500 180° South 200 230 8,000 750 Climbing Toronto Center
Mon 11:50:47 AM 46.3500 -80.6167 155° Southeast 190 219 8,700 650 Climbing Toronto Center
Mon 11:51:47 AM 46.3000 -80.6167 180° South 190 219 9,300 650 Climbing Toronto Center
Mon 11:52:47 AM 46.2333 -80.6000 170° South 200 230 10,000 750 Climbing Toronto Center
Mon 11:53:47 AM 46.1833 -80.6000 180° South 190 219 10,800 700 Climbing Toronto Center
Mon 11:54:47 AM 46.1333 -80.5667 155° Southeast 200 230 11,400 550 Climbing Toronto Center
Mon 11:55:47 AM 46.0833 -80.5667 180° South 210 242 11,900 550 Climbing Toronto Center
Mon 11:56:47 AM 46.0167 -80.5500 170° South 210 242 12,500 700 Climbing Toronto Center
Mon 11:57:47 AM 45.9667 -80.5500 180° South 200 230 13,300 750 Climbing Toronto Center
Mon 11:58:47 AM 45.9167 -80.5167 155° Southeast 200 230 14,000 700 Climbing Toronto Center
Mon 11:59:47 AM 45.8500 -80.5167 180° South 200 230 14,700 550 Climbing Toronto Center
Mon 12:00:47 PM 45.8000 -80.5000 167° South 200 230 15,100 200 Climbing Toronto Center
Mon 12:01:47 PM 45.7333 -80.5000 180° South 210 242 15,100  Level Toronto Center
Mon 12:02:47 PM 45.6833 -80.4667 155° Southeast 230 265 15,100  Level Toronto Center
Mon 12:03:47 PM 45.6167 -80.4667 180° South 230 265 15,100  Level Toronto Center
Mon 12:04:47 PM 45.5500 -80.4333 161° South 240 276 15,100  Level Toronto Center
Mon 12:05:47 PM 45.4833 -80.4167 170° South 240 276 15,100  Level Toronto Center
Mon 12:06:47 PM 45.4167 -80.4167 180° South 240 276 15,100  Level Toronto Center
Mon 12:07:47 PM 45.3500 -80.3833 161° South 240 276 15,100  Level Toronto Center
Mon 12:08:47 PM 45.2833 -80.3833 180° South 240 276 15,100  Level Toronto Center
Mon 12:09:47 PM 45.2167 -80.3667 170° South 240 276 15,100  Level Toronto Center
Mon 12:10:47 PM 45.1500 -80.3333 161° South 240 276 15,100 -50 Level Toronto Center
Mon 12:11:47 PM 45.0833 -80.3333 180° South 240 276 15,000 -50 Descending Toronto Center
Mon 12:12:47 PM 45.0167 -80.3167 170° South 240 276 15,000  Level Toronto Center
Mon 12:13:47 PM 44.9500 -80.3167 180° South 240 276 15,000  Level Toronto Center
Mon 12:14:47 PM 44.8833 -80.2833 160° South 240 276 15,000  Level Toronto Center
Mon 12:15:47 PM 44.8167 -80.2833 180° South 240 276 15,000  Level Toronto Center
Mon 12:16:47 PM 44.7500 -80.2667 170° South 240 276 15,000  Level Toronto Center
Mon 12:17:47 PM 44.6833 -80.2500 170° South 240 276 15,000  Level Toronto Center
Mon 12:18:47 PM 44.6167 -80.2333 170° South 240 276 15,000  Level Toronto Center
Mon 12:19:47 PM 44.5500 -80.2167 170° South 240 276 15,000  Level Toronto Center
Mon 12:20:47 PM 44.4833 -80.2167 180° South 240 276 15,000  Level Toronto Center
Mon 12:21:47 PM 44.4167 -80.2000 170° South 240 276 15,000 -450 Level Toronto Center
Mon 12:22:47 PM 44.3500 -80.1667 160° South 250 288 14,100 -1,000 Descending Toronto Center
Mon 12:23:47 PM 44.2667 -80.1667 180° South 270 311 13,000 -1,150 Descending Toronto Center
Mon 12:24:47 PM 44.2000 -80.1500 170° South 280 322 11,800 -1,250 Descending Toronto Center
Mon 12:25:47 PM 44.1167 -80.1167 164° South 270 311 10,500 -1,200 Descending Toronto Center
Mon 12:26:47 PM 44.0667 -80.0500 136° Southeast 260 299 9,400 -750 Descending Toronto Center
Mon 12:27:47 PM 44.0167 -80.0000 144° Southeast 260 299 9,000 -550 Descending Toronto Center
Mon 12:28:47 PM 43.9500 -79.9333 144° Southeast 240 276 8,300 -500 Descending Toronto Center
Mon 12:29:47 PM 43.9000 -79.8833 144° Southeast 250 288 8,000 -150 Descending Toronto Center
Mon 12:30:47 PM 43.8500 -79.8167 136° Southeast 230 265 8,000  Level Toronto Center
Mon 12:31:47 PM 43.8000 -79.7667 144° Southeast 230 265 8,000 -550 Level Toronto Center
Mon 12:32:47 PM 43.7500 -79.7333 154° Southeast 220 253 6,900 -1,350 Descending Toronto Center
Mon 12:33:47 PM 43.7000 -79.7500 194° South 210 242 5,300 -1,450 Descending Toronto Center
Mon 12:34:47 PM 43.6667 -79.8167 235° Southwest 210 242 4,000 -650 Descending Toronto Center
Mon 12:35:47 PM 43.6333 -79.8667 227° Southwest 210 242 4,000  Level Toronto Center
Mon 12:36:46 PM 43.5833 -79.9333 224° Southwest 210 242 4,000  Level Toronto Center
Mon 12:37:46 PM 43.5500 -79.9833 227° Southwest 210 242 4,000  Level Toronto Center
Mon 12:38:46 PM 43.5000 -79.9833 180° South 200 230 4,000 -50 Level Toronto Center
Mon 12:39:46 PM 43.5000 -79.9167 90° East 210 242 3,900 -400 Descending Toronto Center
Mon 12:40:46 PM 43.5167 -79.8333 75° East 200 230 3,200 -450 Descending Toronto Center
Mon 12:41:46 PM 43.5667 -79.8000 26° Northeast 200 230 3,000 -400 Descending Toronto Center
Mon 12:42:46 PM 43.6000 -79.7500 47° Northeast 180 207 2,400 -750 Descending Toronto Center
Mon 12:43:46 PM 43.6333 -79.7000 47° Northeast 170 196 1,500 -900 Descending Toronto Center

Login

Don't have an account? Register now (free) for customized features, flight alerts, and more!